HTPE/PMA METAR and TAF weather

Enter ICAO airport designator
Station Type Date Time Source
HTPE METAR 2018/12/29 23:00 UTC NOAA

HTPE 292300Z 00000KT 9999 FEW018 28/25 Q1011


Station Type Date Time Source
HTPE Decoded METAR 2018/12/29 23:00 UTC NOAA

Pemba / Karume Airport, Tanzania (HTPE) 05-15S 039-49E
Dec 29, 2018 - 06:00 PM EST / 2018.12.29 2300 UTC
Wind: Calm:0
Visibility: greater than 7 mile(s):0
Sky conditions: mostly clear
Temperature: 82 F (28 C)
Dew Point: 77 F (25 C)
Relative Humidity: 83%
Pressure (altimeter): 29.85 in. Hg (1011 hPa)
ob: HTPE 292300Z 00000KT 9999 FEW018 28/25 Q1011
cycle: 23

Station Type Date Time Source
HTPE TAF 2012/09/13 12:46 UTC NOAA

TAF HTPE 131000Z 1312/1412 16010KT 9999 SHRA SCT024 BKN080
BECMG 1315/1318 SCT021
BECMG 1321/1324 12005KT FEW019
BECMG 1403/1406 17005KT SCT018
BECMG 1409/1412 15010KT 9999 FEW024


Example: see airport list